Time;durP1;ratioP1;P1;durP2;ratioP2;P2;SDS_P1;SDS_P2;PMS_P1;PMS_P2;Temp;Humidity;BMP_temperature;BMP_pressure;BME280_temperature;BME280_humidity;BME280_pressure;Samples;Min_cycle;Max_cycle;Signal;HPM_P1;HPM_P2
2022/03/29 00:02:02;;;;;;;;;22.00;19.33;;;;;18.85;31.30;101046.66;4965155;28;45327;-83
2022/03/29 00:04:27;;;;;;;;;22.67;17.67;;;;;18.92;31.29;101051.47;4969498;28;45576;-83
2022/03/29 00:06:53;;;;;;;;;28.67;24.00;;;;;18.96;31.30;101058.38;4964169;28;45471;-83
2022/03/29 00:09:20;;;;;;;;;25.67;21.67;;;;;18.96;31.21;101055.69;4941700;28;47151;-83
2022/03/29 00:11:46;;;;;;;;;27.67;20.33;;;;;18.79;31.37;101017.38;4949502;28;45391;-83
2022/03/29 00:14:12;;;;;;;;;25.67;23.33;;;;;18.86;31.37;101024.06;4956488;28;45527;-83
2022/03/29 00:16:38;;;;;;;;;22.67;21.33;;;;;18.92;31.84;101032.56;4963964;28;45399;-83
2022/03/29 00:19:04;;;;;;;;;27.33;24.00;;;;;18.84;31.66;101016.06;4974372;28;45562;-83
2022/03/29 00:21:30;;;;;;;;;23.33;21.67;;;;;18.68;31.55;100980.31;4974968;28;45342;-83
2022/03/29 00:23:55;;;;;;;;;21.00;21.00;;;;;18.86;31.69;101007.84;4975350;28;45437;-83
2022/03/29 00:26:20;;;;;;;;;22.33;17.33;;;;;18.90;31.73;101020.16;4975619;28;45476;-83
2022/03/29 00:28:47;;;;;;;;;24.00;22.67;;;;;18.82;31.64;101007.19;4975228;28;46311;-83
2022/03/29 00:31:16;;;;;;;;;22.67;20.33;;;;;18.87;32.00;101018.56;4974537;28;45409;-83
2022/03/29 00:33:42;;;;;;;;;23.67;19.67;;;;;18.67;32.09;100989.41;4973400;28;45465;-83
2022/03/29 00:36:07;;;;;;;;;20.67;18.67;;;;;18.65;32.08;100986.81;4973055;28;45399;-83
2022/03/29 00:38:33;;;;;;;;;32.00;23.67;;;;;18.84;31.91;101009.78;4955131;28;45409;-83
2022/03/29 00:40:59;;;;;;;;;23.67;22.00;;;;;18.81;32.29;101010.88;4963104;28;45315;-83
2022/03/29 00:43:25;;;;;;;;;24.67;24.00;;;;;18.71;32.32;100991.78;4963618;28;45381;-83
2022/03/29 00:45:51;;;;;;;;;23.33;20.67;;;;;18.77;32.46;100998.59;4970125;28;45612;-83
2022/03/29 00:48:17;;;;;;;;;25.67;22.00;;;;;18.65;32.29;100976.03;4974618;28;47016;-83
2022/03/29 00:50:43;;;;;;;;;24.00;21.67;;;;;18.55;32.54;100962.34;4976558;28;45416;-83
2022/03/29 00:53:10;;;;;;;;;24.67;21.00;;;;;18.64;32.17;100976.16;4984893;27;45418;-83
2022/03/29 00:55:37;;;;;;;;;26.00;24.00;;;;;18.71;32.26;100986.38;4974582;28;45244;-82
2022/03/29 00:58:04;;;;;;;;;22.67;21.33;;;;;18.68;32.66;100983.91;4958257;28;45271;-83
2022/03/29 01:00:33;;;;;;;;;28.00;25.33;;;;;18.31;32.91;100919.13;4988562;27;46338;-83
2022/03/29 01:03:02;;;;;;;;;27.00;22.33;;;;;18.62;32.88;100964.59;4977816;28;45405;-82
2022/03/29 01:05:27;;;;;;;;;27.33;22.67;;;;;18.43;32.84;100930.00;4965488;28;45251;-83
2022/03/29 01:07:54;;;;;;;;;17.00;13.00;;;;;18.63;32.98;100969.00;4966211;28;45638;-83
2022/03/29 01:10:20;;;;;;;;;32.33;26.67;;;;;18.31;32.51;100916.44;4972010;28;45540;-83
2022/03/29 01:12:46;;;;;;;;;33.67;26.00;;;;;18.59;32.75;100960.28;4966413;28;45303;-83
2022/03/29 01:15:13;;;;;;;;;24.00;20.33;;;;;18.56;32.79;100952.41;4965805;28;45524;-83
2022/03/29 01:17:41;;;;;;;;;25.33;23.00;;;;;18.41;32.87;100938.22;4965769;28;45347;-83
2022/03/29 01:20:13;;;;;;;;;29.00;22.00;;;;;18.52;32.96;100954.47;4965905;28;45458;-83
2022/03/29 01:22:41;;;;;;;;;27.67;22.67;;;;;18.19;32.50;100909.25;4969185;28;45302;-83
2022/03/29 01:25:08;;;;;;;;;26.00;24.33;;;;;18.48;33.04;100955.69;4970493;28;45306;-82
2022/03/29 01:27:34;;;;;;;;;21.67;18.33;;;;;18.47;33.12;100950.38;4966591;28;46516;-83
2022/03/29 01:30:00;;;;;;;;;24.00;20.67;;;;;18.47;32.81;100955.78;4982614;27;45417;-83
2022/03/29 01:32:28;;;;;;;;;28.33;24.67;;;;;18.39;32.70;100944.69;4966077;28;45391;-82
2022/03/29 01:34:54;;;;;;;;;23.00;15.00;;;;;18.34;32.73;100931.53;4958185;28;45283;-82
2022/03/29 01:37:20;;;;;;;;;31.00;24.00;;;;;18.33;32.75;100925.28;4973703;28;45563;-82
2022/03/29 01:39:45;;;;;;;;;23.67;20.00;;;;;18.42;32.62;100934.53;4976686;28;45349;-83
2022/03/29 01:42:11;;;;;;;;;19.00;19.00;;;;;18.40;32.36;100935.63;4968161;28;45315;-82
2022/03/29 01:44:36;;;;;;;;;22.33;21.00;;;;;18.21;32.46;100906.41;4968648;28;45462;-83
2022/03/29 01:47:02;;;;;;;;;22.33;18.67;;;;;18.37;32.36;100925.91;4976295;28;56430;-83
2022/03/29 01:49:27;;;;;;;;;25.33;20.00;;;;;18.35;32.43;100925.16;4960166;28;45557;-83
2022/03/29 01:51:53;;;;;;;;;25.33;20.00;;;;;18.01;32.24;100862.91;4972336;28;45637;-83
2022/03/29 01:54:19;;;;;;;;;24.67;21.33;;;;;18.21;32.55;100896.47;4959218;28;45537;-83
2022/03/29 01:56:44;;;;;;;;;24.33;22.67;;;;;18.14;32.08;100873.63;4960921;28;46269;-82
2022/03/29 01:59:13;;;;;;;;;27.00;20.67;;;;;18.32;32.01;100906.50;4977086;28;45395;-82
2022/03/29 02:01:43;;;;;;;;;25.67;23.67;;;;;18.21;32.16;100888.38;4959381;28;45500;-82
2022/03/29 02:04:09;;;;;;;;;26.67;22.00;;;;;18.22;32.05;100881.19;4994031;28;45874;-82
2022/03/29 02:06:35;;;;;;;;;22.67;20.33;;;;;18.13;31.83;100872.78;4995619;28;46429;-82
2022/03/29 02:09:02;;;;;;;;;25.00;19.33;;;;;18.27;31.81;100889.78;4969410;28;45573;-82
2022/03/29 02:11:28;;;;;;;;;28.67;22.67;;;;;18.24;31.73;100880.09;4973060;28;45437;-83
2022/03/29 02:13:54;;;;;;;;;22.00;19.33;;;;;18.24;31.40;100877.41;4957331;28;45193;-83
2022/03/29 02:16:20;;;;;;;;;20.33;20.33;;;;;18.05;31.66;100859.00;4964400;28;46666;-82
2022/03/29 02:18:45;;;;;;;;;22.00;19.00;;;;;17.96;31.23;100838.09;4965379;28;45411;-82
2022/03/29 02:21:14;;;;;;;;;22.00;22.00;;;;;18.12;31.57;100862.09;4971085;28;45483;-82
2022/03/29 02:23:40;;;;;;;;;20.33;19.67;;;;;18.07;31.47;100843.53;4964758;28;45419;-82
2022/03/29 02:26:05;;;;;;;;;21.00;19.00;;;;;18.07;31.47;100861.56;4956911;28;46136;-82
2022/03/29 02:28:31;;;;;;;;;19.33;17.33;;;;;17.88;31.36;100817.06;4975860;27;45377;-83
2022/03/29 02:30:56;;;;;;;;;19.67;18.67;;;;;18.07;31.17;100857.03;4975437;28;51913;-83
2022/03/29 02:33:21;;;;;;;;;22.67;18.67;;;;;18.10;31.07;100854.13;4976169;28;45397;-83
2022/03/29 02:35:46;;;;;;;;;23.33;21.00;;;;;17.98;31.01;100821.78;4988195;28;47959;-83
2022/03/29 02:38:13;;;;;;;;;22.67;20.00;;;;;18.11;30.50;100842.34;4955758;28;45382;-83
2022/03/29 02:40:39;;;;;;;;;27.33;23.33;;;;;18.04;30.28;100830.28;4957145;28;45357;-83
2022/03/29 02:43:05;;;;;;;;;19.33;15.33;;;;;18.10;30.47;100839.78;4957042;28;45251;-83
2022/03/29 02:45:30;;;;;;;;;21.33;14.33;;;;;17.86;30.15;100804.69;4956916;28;45338;-83
2022/03/29 02:47:58;;;;;;;;;15.67;15.67;;;;;17.93;30.22;100808.63;4957033;28;45253;-83
2022/03/29 02:50:24;;;;;;;;;19.33;16.67;;;;;18.03;29.99;100816.94;4964170;28;45456;-83
2022/03/29 02:52:52;;;;;;;;;21.33;18.00;;;;;18.03;29.93;100816.94;4965537;28;45619;-83
2022/03/29 02:55:19;;;;;;;;;18.67;14.33;;;;;18.03;30.00;100822.34;4956841;28;46013;-83
2022/03/29 02:57:45;;;;;;;;;19.00;15.67;;;;;17.92;30.14;100810.47;4972679;28;45234;-83
2022/03/29 03:00:15;;;;;;;;;18.33;17.00;;;;;18.03;30.23;100827.72;4961811;28;45352;-83
2022/03/29 03:02:41;;;;;;;;;20.67;16.67;;;;;17.96;29.80;100821.91;4996436;28;45658;-83
2022/03/29 03:05:08;;;;;;;;;12.67;12.00;;;;;17.87;30.37;100807.25;4992474;28;45626;-83
2022/03/29 03:07:33;;;;;;;;;14.33;11.67;;;;;17.99;30.14;100828.91;4956727;28;45400;-83
2022/03/29 03:09:59;;;;;;;;;16.33;12.67;;;;;17.82;30.30;100795.13;4960160;28;45398;-82
2022/03/29 03:12:24;;;;;;;;;14.67;13.67;;;;;17.80;30.38;100792.47;4969590;28;45336;-82
2022/03/29 03:14:49;;;;;;;;;15.00;15.00;;;;;17.71;30.17;100768.88;4956339;28;45416;-82
2022/03/29 03:17:15;;;;;;;;;20.33;16.00;;;;;17.90;29.84;100800.78;4956438;28;45305;-83
2022/03/29 03:19:40;;;;;;;;;17.33;17.33;;;;;17.92;30.16;100799.69;4972848;28;45360;-83
2022/03/29 03:22:05;;;;;;;;;15.67;13.00;;;;;17.92;30.02;100801.53;4975519;28;45594;-83
2022/03/29 03:24:31;;;;;;;;;22.33;14.33;;;;;17.67;30.05;100759.31;4975518;28;45310;-83
2022/03/29 03:26:56;;;;;;;;;17.33;14.67;;;;;17.89;30.17;100791.84;4957047;28;45307;-83
2022/03/29 03:29:21;;;;;;;;;18.33;16.67;;;;;17.80;30.31;100775.44;4956312;28;48684;-83
2022/03/29 03:31:47;;;;;;;;;12.33;12.00;;;;;17.74;30.73;100768.66;4956863;28;45503;-83
2022/03/29 03:34:12;;;;;;;;;17.33;17.33;;;;;17.87;30.53;100788.38;4949125;28;45461;-83
2022/03/29 03:36:37;;;;;;;;;15.00;12.00;;;;;17.82;30.26;100777.09;4972079;28;45325;-83
2022/03/29 03:39:03;;;;;;;;;22.33;17.33;;;;;17.80;30.57;100772.75;4959411;28;45502;-83
2022/03/29 03:41:28;;;;;;;;;14.00;14.00;;;;;17.83;30.66;100777.94;4969723;28;45446;-82
2022/03/29 03:43:54;;;;;;;;;18.00;15.00;;;;;17.65;30.12;100745.06;4956003;28;45557;-83
2022/03/29 03:46:19;;;;;;;;;24.67;18.00;;;;;17.81;30.57;100769.97;4968881;28;45521;-83
2022/03/29 03:48:45;;;;;;;;;15.33;12.67;;;;;17.74;30.54;100757.88;4975369;28;45365;-83
2022/03/29 03:51:10;;;;;;;;;21.67;19.67;;;;;17.86;30.44;100772.31;4959621;28;45511;-83
2022/03/29 03:53:36;;;;;;;;;24.00;18.67;;;;;17.87;30.48;100771.34;4984355;27;45464;-83
2022/03/29 03:56:01;;;;;;;;;18.00;13.67;;;;;17.82;30.30;100762.75;4976836;28;45480;-83
2022/03/29 03:58:26;;;;;;;;;9.33;6.00;;;;;17.71;30.66;100741.94;4980280;28;45434;-83
2022/03/29 04:00:52;;;;;;;;;12.00;7.67;;;;;17.85;30.57;100760.69;4971759;28;45469;-83
2022/03/29 04:03:17;;;;;;;;;15.67;13.00;;;;;17.86;30.67;100756.13;4982859;28;46210;-83
2022/03/29 04:05:42;;;;;;;;;16.00;10.00;;;;;17.85;30.86;100752.59;5077569;28;45442;-83
2022/03/29 04:08:08;;;;;;;;;14.67;12.33;;;;;17.84;31.05;100752.69;5093419;27;45411;-83
2022/03/29 04:10:33;;;;;;;;;17.33;15.33;;;;;17.70;30.86;100726.75;5078568;28;45393;-82
2022/03/29 04:13:00;;;;;;;;;18.00;13.00;;;;;17.84;31.04;100753.56;5077845;28;45680;-82
2022/03/29 04:15:26;;;;;;;;;12.33;11.00;;;;;17.74;30.84;100739.00;5077945;28;45362;-82
2022/03/29 04:17:51;;;;;;;;;16.67;12.33;;;;;17.57;31.63;100707.06;5078027;28;45322;-83
2022/03/29 04:20:17;;;;;;;;;17.67;14.33;;;;;17.76;31.71;100742.44;5076589;28;45349;-83
2022/03/29 04:22:42;;;;;;;;;17.00;13.67;;;;;17.80;31.33;100751.19;4981601;28;46046;-82
2022/03/29 04:25:08;;;;;;;;;13.33;10.67;;;;;17.48;31.70;100705.88;4971397;28;45482;-83
2022/03/29 04:27:33;;;;;;;;;17.67;14.67;;;;;17.67;31.66;100737.72;4961443;28;45471;-82
2022/03/29 04:29:59;;;;;;;;;20.33;17.00;;;;;17.69;31.68;100743.88;4966445;28;45366;-82
2022/03/29 04:32:24;;;;;;;;;14.33;13.33;;;;;17.50;31.86;100717.41;4967244;28;45370;-83
2022/03/29 04:34:49;;;;;;;;;17.00;14.67;;;;;17.59;32.20;100722.13;4959849;28;45353;-82
2022/03/29 04:37:15;;;;;;;;;17.00;11.67;;;;;17.64;31.98;100738.81;4973584;28;45437;-82
2022/03/29 04:39:40;;;;;;;;;16.00;13.67;;;;;17.52;32.22;100727.09;4962273;28;45571;-83
2022/03/29 04:42:06;;;;;;;;;21.67;16.33;;;;;17.36;32.38;100694.19;4979495;28;45370;-83
2022/03/29 04:44:34;;;;;;;;;16.00;11.00;;;;;17.45;32.41;100709.66;4985737;27;45426;-82
2022/03/29 04:47:00;;;;;;;;;19.33;16.33;;;;;17.50;32.36;100703.94;4974376;28;45302;-83
2022/03/29 04:49:25;;;;;;;;;19.67;16.33;;;;;17.51;32.75;100711.03;4975114;28;45461;-83
2022/03/29 04:51:50;;;;;;;;;18.67;17.67;;;;;17.29;33.09;100677.59;4974787;28;45992;-83
2022/03/29 04:54:16;;;;;;;;;14.67;13.00;;;;;17.39;33.07;100698.47;4965692;28;45352;-82
2022/03/29 04:56:42;;;;;;;;;21.00;19.00;;;;;17.59;33.24;100735.59;4973252;28;45723;-82
2022/03/29 04:59:07;;;;;;;;;18.00;13.33;;;;;17.56;32.92;100738.53;4973407;28;45546;-82
2022/03/29 05:01:33;;;;;;;;;20.00;18.67;;;;;17.57;33.37;100742.09;4958935;28;46116;-82
2022/03/29 05:03:59;;;;;;;;;22.67;17.00;;;;;17.33;33.49;100709.72;4970268;27;45303;-83
2022/03/29 05:06:24;;;;;;;;;16.00;14.33;;;;;17.42;33.62;100733.28;4965099;28;45496;-83
2022/03/29 05:08:50;;;;;;;;;16.67;16.67;;;;;17.29;34.21;100717.16;4963201;28;45612;-83
2022/03/29 05:11:16;;;;;;;;;20.67;18.33;;;;;17.52;34.00;100750.50;4974135;28;45375;-83
2022/03/29 05:13:41;;;;;;;;;20.67;18.00;;;;;17.47;34.01;100731.13;4972537;28;45549;-82
2022/03/29 05:16:06;;;;;;;;;23.00;18.33;;;;;17.46;33.76;100734.78;4965289;28;45352;-82
2022/03/29 05:18:32;;;;;;;;;18.00;15.33;;;;;17.50;33.96;100741.66;4969391;28;45433;-82
2022/03/29 05:20:57;;;;;;;;;24.67;19.00;;;;;17.28;33.96;100704.66;4965211;28;48154;-83
2022/03/29 05:23:23;;;;;;;;;14.33;13.67;;;;;17.41;34.19;100728.88;4961491;28;45489;-82
2022/03/29 05:25:49;;;;;;;;;22.00;15.33;;;;;17.35;34.13;100729.28;4952959;28;45501;-83
2022/03/29 05:28:15;;;;;;;;;21.67;18.00;;;;;17.46;34.45;100732.94;5021342;28;45538;-83
2022/03/29 05:30:41;;;;;;;;;22.00;18.00;;;;;17.33;34.16;100713.28;4960524;28;46144;-83
2022/03/29 05:33:06;;;;;;;;;20.67;16.33;;;;;17.46;33.96;100738.31;4967483;28;45430;-83
2022/03/29 05:35:33;;;;;;;;;19.00;16.67;;;;;17.46;34.04;100738.31;4959675;28;45306;-83
2022/03/29 05:38:01;;;;;;;;;19.00;15.00;;;;;17.44;34.16;100734.03;4977073;28;45489;-82
2022/03/29 05:40:28;;;;;;;;;20.00;16.00;;;;;17.43;34.21;100738.56;4974964;28;45481;-84
2022/03/29 05:42:54;;;;;;;;;20.67;17.67;;;;;17.43;34.08;100733.16;4972516;28;45461;-83
2022/03/29 05:45:20;;;;;;;;;17.67;14.67;;;;;17.32;33.51;100718.75;5002402;28;45533;-84
2022/03/29 05:50:30;;;;;;;;;24.33;17.33;;;;;17.42;34.16;100720.69;4987147;27;45434;-84
2022/03/29 05:52:56;;;;;;;;;22.67;17.67;;;;;17.40;33.88;100719.06;4972238;28;45505;-84
2022/03/29 05:55:23;;;;;;;;;19.67;19.67;;;;;17.30;33.97;100695.50;4957682;28;45396;-84
2022/03/29 05:57:49;;;;;;;;;22.33;16.67;;;;;17.31;33.83;100690.97;4956290;28;45342;-84
2022/03/29 06:00:21;;;;;;;;;24.00;18.33;;;;;17.44;33.86;100713.34;4957569;28;46148;-84
2022/03/29 06:02:47;;;;;;;;;22.33;19.00;;;;;17.30;34.16;100679.34;4972822;28;45189;-85
2022/03/29 06:05:12;;;;;;;;;22.00;20.67;;;;;17.46;33.70;100708.69;4971830;28;45213;-84
2022/03/29 06:07:37;;;;;;;;;16.00;15.33;;;;;17.20;33.30;100661.25;4967709;28;45493;-83
2022/03/29 06:10:04;;;;;;;;;21.00;19.00;;;;;17.50;33.88;100710.19;4977182;28;45428;-83
2022/03/29 06:12:30;;;;;;;;;21.00;19.00;;;;;17.35;33.92;100689.78;4967924;28;45298;-83
2022/03/29 06:14:55;;;;;;;;;28.00;21.67;;;;;17.38;34.01;100707.53;4961862;28;45319;-83
2022/03/29 06:17:21;;;;;;;;;22.00;20.00;;;;;17.50;33.88;100725.50;5025344;28;45440;-83
2022/03/29 06:19:46;;;;;;;;;25.00;20.67;;;;;17.23;34.20;100696.91;4983461;28;45414;-82
2022/03/29 06:22:11;;;;;;;;;57.75;45.25;;;;;17.37;34.17;100720.16;4967719;28;45423;-83
2022/03/29 06:24:38;;;;;;;;;24.00;22.33;;;;;17.40;34.58;100721.78;4973798;28;45407;-82
2022/03/29 06:27:03;;;;;;;;;18.00;13.67;;;;;17.19;34.40;100676.56;4977182;28;45384;-82
2022/03/29 06:29:29;;;;;;;;;23.33;18.00;;;;;17.55;34.70;100727.88;4976203;28;45417;-83
2022/03/29 06:31:54;;;;;;;;;28.00;20.33;;;;;17.29;34.60;100679.44;4976615;28;46163;-84
2022/03/29 06:34:20;;;;;;;;;20.67;16.33;;;;;17.56;34.92;100726.88;4976179;28;45424;-84
2022/03/29 06:36:46;;;;;;;;;21.67;19.67;;;;;17.37;34.89;100701.31;4966472;28;45247;-84
2022/03/29 06:39:13;;;;;;;;;14.00;14.00;;;;;17.58;35.44;100754.56;4939396;28;45928;-83
2022/03/29 06:41:40;;;;;;;;;23.33;18.33;;;;;17.51;35.26;100744.25;4973467;28;46133;-83
2022/03/29 06:44:07;;;;;;;;;21.00;18.00;;;;;17.44;35.22;100729.53;4972091;28;45607;-84
2022/03/29 06:46:34;;;;;;;;;26.33;19.33;;;;;17.48;35.21;100744.47;4965342;28;45494;-84
2022/03/29 06:49:00;;;;;;;;;20.33;20.00;;;;;17.57;34.97;100748.34;4986244;28;45364;-83
2022/03/29 06:51:26;;;;;;;;;23.33;20.00;;;;;17.53;34.99;100749.53;4965008;27;45530;-83
2022/03/29 06:53:51;;;;;;;;;20.67;19.67;;;;;17.35;35.09;100713.13;4972591;28;45223;-83
2022/03/29 06:56:17;;;;;;;;;16.33;16.33;;;;;17.47;35.11;100740.06;4974208;28;45520;-83
2022/03/29 06:58:42;;;;;;;;;22.33;20.67;;;;;17.42;36.06;100725.19;4973140;28;45396;-83
2022/03/29 07:01:08;;;;;;;;;19.00;13.33;;;;;17.61;36.31;100755.22;4980240;28;45381;-83
2022/03/29 07:03:35;;;;;;;;;22.33;20.67;;;;;17.52;37.30;100726.25;4963850;28;45236;-83
2022/03/29 07:06:03;;;;;;;;;22.67;18.67;;;;;17.64;37.29;100744.22;4976014;28;45489;-83
2022/03/29 07:08:30;;;;;;;;;22.00;20.33;;;;;17.67;39.04;100735.91;4956466;28;45381;-84
2022/03/29 07:13:40;;;;;;;;;25.00;19.67;;;;;17.76;37.86;100726.28;4959537;28;45485;-83
2022/03/29 07:16:06;;;;;;;;;31.00;20.00;;;;;17.62;38.73;100699.47;4976392;28;45318;-81
2022/03/29 07:18:32;;;;;;;;;44.67;35.67;;;;;17.78;37.55;100729.72;4964580;28;45968;-82
2022/03/29 07:20:58;;;;;;;;;40.00;34.00;;;;;17.79;38.04;100733.28;4965042;28;45476;-83
2022/03/29 07:23:24;;;;;;;;;24.33;23.00;;;;;17.58;37.78;100689.91;4973088;28;45412;-84
2022/03/29 07:25:49;;;;;;;;;23.33;19.67;;;;;17.72;37.53;100711.28;4976219;28;45326;-85
2022/03/29 07:28:15;;;;;;;;;22.00;20.00;;;;;17.78;37.18;100710.00;4956685;28;48369;-85
2022/03/29 07:30:43;;;;;;;;;21.00;19.67;;;;;17.46;36.82;100646.72;4976065;28;45414;-85
2022/03/29 07:33:10;;;;;;;;;26.33;20.33;;;;;17.86;36.08;100713.00;4976186;28;45309;-85
2022/03/29 07:35:36;;;;;;;;;24.67;19.00;;;;;17.86;35.77;100705.78;4976879;28;45553;-85
2022/03/29 07:38:04;;;;;;;;;21.00;19.50;;;;;17.88;35.39;100705.66;4976134;28;45214;-85
2022/03/29 07:40:30;;;;;;;;;29.67;20.67;;;;;17.62;35.59;100651.81;4976181;28;45295;-85
2022/03/29 07:42:57;;;;;;;;;20.00;18.67;;;;;17.65;35.41;100662.41;4976465;28;45575;-85
2022/03/29 07:45:23;;;;;;;;;22.33;21.33;;;;;17.27;34.80;100581.69;4964689;28;45628;-85
2022/03/29 07:47:51;;;;;;;;;24.33;18.33;;;;;17.65;35.14;100643.53;4983215;28;46266;-85
2022/03/29 07:50:18;;;;;;;;;23.00;21.00;;;;;17.94;34.60;100694.41;4976213;28;45396;-85
2022/03/29 07:52:43;;;;;;;;;22.00;21.33;;;;;17.95;34.92;100701.53;4976107;28;45351;-85
2022/03/29 07:55:12;;;;;;;;;25.67;20.67;;;;;17.79;34.73;100677.50;4983029;28;45595;-85
2022/03/29 07:57:39;;;;;;;;;23.00;19.00;;;;;17.97;34.58;100713.06;4974625;28;48223;-85
2022/03/29 08:00:31;;;;;;;;;22.50;17.00;;;;;17.92;34.13;100709.84;4959220;28;45880;-85
2022/03/29 08:02:52;;;;;;;;;25.33;20.33;;;;;17.93;34.72;100701.66;4997981;28;45475;-85
2022/03/29 08:05:18;;;;;;;;;18.33;14.67;;;;;17.91;35.43;100684.72;5013174;28;45263;-83
2022/03/29 08:07:44;;;;;;;;;24.00;20.67;;;;;17.83;35.02;100673.66;4988660;27;46955;-83
2022/03/29 08:10:10;;;;;;;;;24.33;21.00;;;;;17.96;35.50;100687.06;4984694;28;45474;-88
2022/03/29 08:12:35;;;;;;;;;22.67;19.33;;;;;17.90;35.74;100669.50;4979880;28;45444;-86
2022/03/29 08:15:01;;;;;;;;;26.00;20.67;;;;;17.83;35.50;100640.44;4981109;28;45417;-84
2022/03/29 08:17:26;;;;;;;;;22.67;21.67;;;;;18.11;35.51;100676.94;4983263;28;46083;-82
2022/03/29 08:19:52;;;;;;;;;23.33;23.33;;;;;18.23;34.83;100694.03;4984578;28;45468;-81
2022/03/29 08:22:18;;;;;;;;;24.67;20.00;;;;;17.93;34.77;100636.94;4981274;28;45535;-81
2022/03/29 08:24:43;;;;;;;;;21.67;18.33;;;;;18.31;35.04;100681.69;4987493;28;45473;-83
2022/03/29 08:27:09;;;;;;;;;21.67;18.33;;;;;18.35;35.25;100690.38;4971936;28;46095;-81
2022/03/29 08:29:34;;;;;;;;;20.33;19.00;;;;;18.38;35.15;100667.69;4964724;28;45472;-84
2022/03/29 08:32:00;;;;;;;;;24.67;21.00;;;;;18.49;34.47;100676.66;4983488;28;45535;-84
2022/03/29 08:34:25;;;;;;;;;23.67;21.67;;;;;18.55;35.02;100676.22;4964090;28;45478;-84
2022/03/29 08:36:52;;;;;;;;;17.33;13.33;;;;;18.64;34.75;100665.69;4978806;28;45391;-83
2022/03/29 08:39:18;;;;;;;;;22.67;22.00;;;;;18.76;34.75;100670.97;5035557;28;45271;-85
2022/03/29 08:41:52;;;;;;;;;28.00;21.33;;;;;18.90;34.95;100669.03;5021218;28;45432;-83
2022/03/29 08:44:19;;;;;;;;;22.67;17.00;;;;;19.04;34.53;100657.97;5018441;28;45221;-84
2022/03/29 08:46:46;;;;;;;;;22.67;20.00;;;;;18.91;34.24;100612.19;4974500;28;46036;-83
2022/03/29 08:49:13;;;;;;;;;23.00;20.67;;;;;19.17;34.40;100620.88;4956920;28;45427;-83
2022/03/29 08:51:39;;;;;;;;;29.00;22.67;;;;;19.53;34.11;100656.66;4994888;28;45429;-84
2022/03/29 08:54:06;;;;;;;;;23.33;17.33;;;;;19.68;33.62;100638.31;4994314;28;45574;-84
2022/03/29 08:56:32;;;;;;;;;24.00;18.33;;;;;19.79;33.39;100642.84;4991692;27;45931;-83
2022/03/29 08:58:57;;;;;;;;;25.00;20.67;;;;;19.75;32.71;100606.22;4959510;28;45347;-84
2022/03/29 09:01:23;;;;;;;;;30.33;24.00;;;;;19.94;33.03;100624.44;4955322;28;45164;-84
2022/03/29 09:04:12;;;;;;;;;31.67;24.00;;;;;19.98;32.91;100626.78;4983815;28;45370;-84
2022/03/29 09:06:50;;;;;;;;;27.67;25.00;;;;;20.01;33.53;100622.94;4994452;28;45918;-84
2022/03/29 09:09:27;;;;;;;;;26.00;24.67;;;;;19.99;32.90;100624.91;4994199;28;45468;-84
2022/03/29 09:11:55;;;;;;;;;26.33;23.67;;;;;20.02;33.21;100625.53;4994493;28;45325;-84
2022/03/29 09:14:25;;;;;;;;;23.00;21.00;;;;;19.99;33.15;100606.84;4994701;28;45630;-84
2022/03/29 09:16:54;;;;;;;;;27.33;24.33;;;;;20.09;33.28;100606.94;4994412;28;45243;-84
2022/03/29 09:19:25;;;;;;;;;28.00;25.00;;;;;20.22;32.92;100617.53;5019055;28;45347;-84
2022/03/29 09:21:53;;;;;;;;;26.00;21.67;;;;;20.27;32.46;100607.16;4993690;28;45536;-84
2022/03/29 09:24:19;;;;;;;;;25.00;22.00;;;;;20.44;32.50;100617.41;4972212;28;45476;-84
2022/03/29 09:26:47;;;;;;;;;26.67;21.00;;;;;20.54;32.32;100620.16;4974422;28;45409;-84
2022/03/29 09:29:21;;;;;;;;;23.33;18.67;;;;;20.29;32.55;100563.72;4959664;28;45460;-84
2022/03/29 09:31:59;;;;;;;;;26.33;24.00;;;;;20.75;31.99;100628.25;4954965;28;45320;-83
2022/03/29 09:34:28;;;;;;;;;29.33;24.67;;;;;20.99;32.09;100618.94;4967897;28;45441;-83
2022/03/29 09:36:53;;;;;;;;;25.33;21.00;;;;;21.35;31.51;100611.19;4973745;28;46036;-83
2022/03/29 09:39:30;;;;;;;;;29.33;26.67;;;;;21.59;31.54;100605.41;4973555;28;47888;-84
2022/03/29 09:41:58;;;;;;;;;22.67;20.33;;;;;21.71;31.18;100606.97;4974258;28;45559;-83
2022/03/29 09:44:33;;;;;;;;;30.00;26.00;;;;;22.09;30.98;100607.94;4972641;28;45504;-83
2022/03/29 09:47:02;;;;;;;;;33.67;27.67;;;;;22.53;30.25;100600.16;4954449;28;46429;-84
2022/03/29 09:49:28;;;;;;;;;32.00;24.67;;;;;22.73;29.37;100574.63;4954225;28;45421;-84
2022/03/29 09:52:11;;;;;;;;;31.67;28.00;;;;;22.99;29.45;100571.22;4954917;28;45442;-84
2022/03/29 09:54:38;;;;;;;;;30.00;25.00;;;;;23.60;28.89;100592.28;4957927;28;45475;-84
2022/03/29 09:57:04;;;;;;;;;24.00;21.00;;;;;24.25;27.95;100587.56;4981126;28;45437;-84
2022/03/29 09:59:31;;;;;;;;;25.67;22.33;;;;;24.89;26.83;100583.53;4996379;28;45458;-84
2022/03/29 10:01:58;;;;;;;;;23.67;22.67;;;;;25.32;26.57;100564.41;4996662;28;45373;-84
2022/03/29 10:04:26;;;;;;;;;29.33;24.00;;;;;25.96;26.11;100573.69;4977508;28;45402;-84
2022/03/29 10:06:55;;;;;;;;;21.33;21.33;;;;;26.43;25.18;100562.00;4976162;28;46205;-84
2022/03/29 10:09:35;;;;;;;;;28.33;22.67;;;;;26.82;24.66;100550.28;4976395;28;45380;-84
2022/03/29 10:12:04;;;;;;;;;20.00;18.00;;;;;27.45;23.79;100555.78;4977010;28;45483;-84
2022/03/29 10:14:38;;;;;;;;;24.67;22.67;;;;;27.99;23.13;100548.34;4977142;28;45324;-84
2022/03/29 10:17:05;;;;;;;;;23.00;19.67;;;;;28.26;22.45;100502.16;4976624;28;45998;-84
2022/03/29 10:19:30;;;;;;;;;25.67;24.33;;;;;28.97;22.08;100534.56;4975220;28;45547;-84
2022/03/29 10:21:58;;;;;;;;;26.33;23.00;;;;;29.76;21.08;100539.22;4976145;28;45549;-84
2022/03/29 10:24:24;;;;;;;;;21.67;20.00;;;;;30.46;20.94;100537.44;4971771;28;45413;-84
2022/03/29 10:26:52;;;;;;;;;18.67;16.67;;;;;30.69;20.05;100523.41;4966362;28;45478;-85
2022/03/29 10:29:18;;;;;;;;;25.33;22.67;;;;;30.87;19.57;100515.47;4987432;28;45428;-87
2022/03/29 10:31:56;;;;;;;;;18.00;17.33;;;;;30.73;20.00;100540.34;4993851;28;45467;-87
2022/03/29 10:34:30;;;;;;;;;26.33;22.67;;;;;29.93;20.67;100515.94;4983332;28;45590;-87
2022/03/29 10:37:16;;;;;;;;;24.33;22.33;;;;;29.21;21.32;100528.75;4979390;28;46212;-87
2022/03/29 10:40:04;;;;;;;;;25.00;19.33;;;;;28.12;21.77;100470.09;4998168;28;45684;-87
2022/03/29 10:42:41;;;;;;;;;27.00;25.33;;;;;27.88;22.09;100532.34;4976821;28;45302;-86
2022/03/29 10:45:09;;;;;;;;;26.67;22.00;;;;;27.25;22.66;100531.59;4975165;28;45519;-87
2022/03/29 10:47:35;;;;;;;;;26.33;20.00;;;;;26.70;23.12;100529.84;4977769;28;47485;-87
2022/03/29 10:50:02;;;;;;;;;24.00;23.00;;;;;26.33;23.68;100528.56;4995950;28;45492;-86
2022/03/29 10:52:29;;;;;;;;;32.00;27.33;;;;;26.02;24.16;100514.81;4960912;28;45407;-86
2022/03/29 10:55:25;;;;;;;;;28.67;24.67;;;;;25.57;23.75;100503.38;4979154;28;45319;-85
2022/03/29 10:58:08;;;;;;;;;23.67;20.67;;;;;25.08;24.40;100476.03;4977288;28;45611;-87
2022/03/29 11:00:36;;;;;;;;;25.67;24.67;;;;;24.72;24.33;100465.38;4975473;28;45436;-87
2022/03/29 11:03:08;;;;;;;;;27.67;22.67;;;;;24.80;24.85;100511.75;5007808;28;45222;-86
2022/03/29 11:06:08;;;;;;;;;29.33;23.67;;;;;24.40;25.59;100486.03;5020013;28;45481;-89
2022/03/29 11:08:36;;;;;;;;;25.67;19.67;;;;;24.32;24.82;100488.69;5002317;28;47472;-87
2022/03/29 11:11:03;;;;;;;;;22.67;19.67;;;;;23.65;25.54;100409.50;4978674;28;45496;-88
2022/03/29 11:13:32;;;;;;;;;27.33;23.33;;;;;23.18;25.45;100344.59;4976596;28;45513;-90
2022/03/29 11:16:02;;;;;;;;;20.33;19.67;;;;;23.56;25.55;100446.69;4976820;28;45318;-90